Aviation Digital Data Service (ADDS)

Output produced by METARs form (0337 UTC 24 February 2017)
found at http://www.aviationweather.gov/adds/metars/
 
UBBB 240330Z 23011KT CAVOK 10/M04 Q1010 R88/D NOSIG
TAF UBBB 232300Z 2400/2424 22024G34KT CAVOK TX10/2411Z TN04/2404Z 
     BECMG 2404/2406 31016KT SCT012 BKN100 
     BECMG 2419/2421 17014KT
       
UBBG 240330Z 30008KT 9999 BKN100 06/M05 Q1017 R30/CLRD// NOSIG
TAF UBBG 232300Z 2400/2424 28008KT 9999 FEW040 SCT100 TX15/2412Z TN04/2403Z 
     TEMPO 2406/2410 30014KT
       
UBBL 240300Z 21004KT 9000 NSC 00/MM02 Q1017 R33/CLRD// RMK MT OP
TAF UBBL 232305Z 2400/2424 20006KT 8000 BKN100 TX12/2411Z TN01/2402Z 
     TEMPO 2400/2412 VRB04KT SCT025 BKN100
       
UBBN 240330Z 01004KT 0200 R14R/0250 FZFG VV002 M07/M08 Q1024 R14R/CLRD// NOSIG RMK MT OBSC QFE692
TAF UBBN 232303Z 2400/2424 08006KT 2000 BR SCT010 BKN023 TXM01/2411Z TNM09/2403Z 
     TEMPO 2400/2408 VRB04KT 0400 FZFG VV002 
     TEMPO 2408/2414 4000 -SN BR OVC018
       
UBBQ 24030Z 27022KT 9999 NSC 07/M06 Q1013 R34/CLRD// NOSIG RMK MT OP
TAF UBBQ 232303Z 2400/2424 29010KT 8000 NSC TX12/2410Z TNM02/2403Z 
     BECMG 2406/2408 VRB04KT SCT015 BKN050
       
UBBY 240300Z 00000KT 9999 SCT060 05/M05 Q1020 R33/////// NOSIG RMK MT OP
TAF UBBY 240200Z 2403/2412 VRB04KT 9999 FEW040 SCT080
       
UBEE 240300Z 29018KT 9999 SCT040 06/M03 Q1015 R30/CLRD// NOSIG
UBBB 240330Z 23011KT CAVOK 10/M04 Q1010 R88/D NOSIG
TAF UBBB 232300Z 2400/2424 22024G34KT CAVOK TX10/2411Z TN04/2404Z 
     BECMG 2404/2406 31016KT SCT012 BKN100 
     BECMG 2419/2421 17014KT
       
UBBG 240330Z 30008KT 9999 BKN100 06/M05 Q1017 R30/CLRD// NOSIG
TAF UBBG 232300Z 2400/2424 28008KT 9999 FEW040 SCT100 TX15/2412Z TN04/2403Z 
     TEMPO 2406/2410 30014KT